sensor_id;sensor_type;location;lat;lon;timestamp;P1;durP1;ratioP1;P2;durP2;ratioP2
11677;SDS011;5895;41.950;24.372;2023-05-10T00:01:41;4.95;;;2.60;;
11677;SDS011;5895;41.950;24.372;2023-05-10T00:04:08;14.18;;;2.65;;
11677;SDS011;5895;41.950;24.372;2023-05-10T00:06:35;8.18;;;2.60;;
11677;SDS011;5895;41.950;24.372;2023-05-10T00:09:03;34.72;;;2.92;;
11677;SDS011;5895;41.950;24.372;2023-05-10T00:11:31;6.88;;;2.70;;
11677;SDS011;5895;41.950;24.372;2023-05-10T00:13:58;2.53;;;1.90;;
11677;SDS011;5895;41.950;24.372;2023-05-10T00:16:25;1.55;;;1.45;;
11677;SDS011;5895;41.950;24.372;2023-05-10T00:18:52;3.08;;;1.98;;
11677;SDS011;5895;41.950;24.372;2023-05-10T00:21:19;2.30;;;2.10;;
11677;SDS011;5895;41.950;24.372;2023-05-10T00:23:46;6.07;;;1.90;;
11677;SDS011;5895;41.950;24.372;2023-05-10T00:26:15;1.92;;;1.83;;
11677;SDS011;5895;41.950;24.372;2023-05-10T00:28:42;9.48;;;2.13;;
11677;SDS011;5895;41.950;24.372;2023-05-10T00:31:09;4.78;;;1.63;;
11677;SDS011;5895;41.950;24.372;2023-05-10T00:33:36;3.00;;;1.90;;
11677;SDS011;5895;41.950;24.372;2023-05-10T00:36:03;2.00;;;1.80;;
11677;SDS011;5895;41.950;24.372;2023-05-10T00:38:33;1.80;;;1.70;;
11677;SDS011;5895;41.950;24.372;2023-05-10T00:41:00;1.80;;;1.70;;
11677;SDS011;5895;41.950;24.372;2023-05-10T00:43:29;1.63;;;1.52;;
11677;SDS011;5895;41.950;24.372;2023-05-10T00:45:56;1.70;;;1.60;;
11677;SDS011;5895;41.950;24.372;2023-05-10T00:48:23;1.83;;;1.65;;
11677;SDS011;5895;41.950;24.372;2023-05-10T00:50:51;1.75;;;1.65;;
11677;SDS011;5895;41.950;24.372;2023-05-10T00:53:18;1.80;;;1.70;;
11677;SDS011;5895;41.950;24.372;2023-05-10T00:55:45;1.95;;;1.80;;
11677;SDS011;5895;41.950;24.372;2023-05-10T00:58:12;3.88;;;1.83;;
11677;SDS011;5895;41.950;24.372;2023-05-10T01:00:42;2.00;;;1.90;;
11677;SDS011;5895;41.950;24.372;2023-05-10T01:03:09;30.80;;;2.85;;
11677;SDS011;5895;41.950;24.372;2023-05-10T01:05:37;21.73;;;2.88;;
11677;SDS011;5895;41.950;24.372;2023-05-10T01:08:04;8.10;;;2.90;;
11677;SDS011;5895;41.950;24.372;2023-05-10T01:10:32;21.55;;;3.20;;
11677;SDS011;5895;41.950;24.372;2023-05-10T01:12:59;46.20;;;3.78;;
11677;SDS011;5895;41.950;24.372;2023-05-10T01:15:26;40.00;;;3.85;;
11677;SDS011;5895;41.950;24.372;2023-05-10T01:17:55;40.13;;;4.00;;
11677;SDS011;5895;41.950;24.372;2023-05-10T01:20:23;65.55;;;4.80;;
11677;SDS011;5895;41.950;24.372;2023-05-10T01:23:09;7.97;;;3.25;;
11677;SDS011;5895;41.950;24.372;2023-05-10T01:25:53;25.20;;;3.65;;
11677;SDS011;5895;41.950;24.372;2023-05-10T01:31:59;29.77;;;3.17;;
11677;SDS011;5895;41.950;24.372;2023-05-10T01:34:50;33.22;;;3.38;;
11677;SDS011;5895;41.950;24.372;2023-05-10T01:37:27;3.13;;;2.83;;
11677;SDS011;5895;41.950;24.372;2023-05-10T01:40:00;6.30;;;3.38;;
11677;SDS011;5895;41.950;24.372;2023-05-10T01:42:36;5.85;;;2.80;;
11677;SDS011;5895;41.950;24.372;2023-05-10T01:45:11;3.78;;;3.08;;
11677;SDS011;5895;41.950;24.372;2023-05-10T01:47:46;5.22;;;2.92;;
11677;SDS011;5895;41.950;24.372;2023-05-10T01:50:21;3.35;;;3.05;;
11677;SDS011;5895;41.950;24.372;2023-05-10T01:52:54;3.88;;;2.55;;
11677;SDS011;5895;41.950;24.372;2023-05-10T01:55:24;8.20;;;2.50;;
11677;SDS011;5895;41.950;24.372;2023-05-10T01:57:55;8.80;;;2.33;;
11677;SDS011;5895;41.950;24.372;2023-05-10T02:00:27;5.60;;;2.40;;
11677;SDS011;5895;41.950;24.372;2023-05-10T02:02:57;2.33;;;2.15;;
11677;SDS011;5895;41.950;24.372;2023-05-10T02:05:26;58.75;;;3.63;;
11677;SDS011;5895;41.950;24.372;2023-05-10T02:07:56;8.60;;;2.95;;
11677;SDS011;5895;41.950;24.372;2023-05-10T02:10:26;3.40;;;3.00;;
11677;SDS011;5895;41.950;24.372;2023-05-10T02:12:54;22.80;;;3.35;;
11677;SDS011;5895;41.950;24.372;2023-05-10T02:15:24;9.48;;;3.00;;
11677;SDS011;5895;41.950;24.372;2023-05-10T02:17:54;6.10;;;3.08;;
11677;SDS011;5895;41.950;24.372;2023-05-10T02:20:24;15.02;;;3.33;;
11677;SDS011;5895;41.950;24.372;2023-05-10T02:22:53;11.05;;;3.45;;
11677;SDS011;5895;41.950;24.372;2023-05-10T02:25:22;21.75;;;3.80;;
11677;SDS011;5895;41.950;24.372;2023-05-10T02:27:51;21.05;;;3.92;;
11677;SDS011;5895;41.950;24.372;2023-05-10T02:30:22;3.65;;;3.35;;
11677;SDS011;5895;41.950;24.372;2023-05-10T02:32:50;4.38;;;3.10;;
11677;SDS011;5895;41.950;24.372;2023-05-10T02:35:18;18.85;;;3.47;;
11677;SDS011;5895;41.950;24.372;2023-05-10T02:37:47;12.57;;;3.35;;
11677;SDS011;5895;41.950;24.372;2023-05-10T02:40:16;3.33;;;3.03;;
11677;SDS011;5895;41.950;24.372;2023-05-10T02:42:46;4.07;;;3.30;;
11677;SDS011;5895;41.950;24.372;2023-05-10T02:45:17;3.92;;;3.08;;
11677;SDS011;5895;41.950;24.372;2023-05-10T02:47:47;36.17;;;3.55;;
11677;SDS011;5895;41.950;24.372;2023-05-10T02:50:14;3.50;;;3.20;;
11677;SDS011;5895;41.950;24.372;2023-05-10T02:52:42;3.50;;;3.20;;
11677;SDS011;5895;41.950;24.372;2023-05-10T02:55:14;12.07;;;3.17;;
11677;SDS011;5895;41.950;24.372;2023-05-10T02:57:43;8.70;;;3.17;;
11677;SDS011;5895;41.950;24.372;2023-05-10T03:00:17;7.63;;;2.90;;
11677;SDS011;5895;41.950;24.372;2023-05-10T03:02:44;9.40;;;2.65;;
11677;SDS011;5895;41.950;24.372;2023-05-10T03:05:12;7.55;;;2.95;;
11677;SDS011;5895;41.950;24.372;2023-05-10T03:07:39;2.65;;;2.45;;
11677;SDS011;5895;41.950;24.372;2023-05-10T03:10:07;3.15;;;2.95;;
11677;SDS011;5895;41.950;24.372;2023-05-10T03:12:41;20.30;;;3.42;;
11677;SDS011;5895;41.950;24.372;2023-05-10T03:15:22;10.10;;;3.80;;
11677;SDS011;5895;41.950;24.372;2023-05-10T03:17:57;77.40;;;5.53;;
11677;SDS011;5895;41.950;24.372;2023-05-10T03:20:33;4.13;;;3.75;;
11677;SDS011;5895;41.950;24.372;2023-05-10T03:23:04;4.68;;;4.18;;
11677;SDS011;5895;41.950;24.372;2023-05-10T03:25:37;13.73;;;4.45;;
11677;SDS011;5895;41.950;24.372;2023-05-10T03:28:07;13.30;;;4.65;;
11677;SDS011;5895;41.950;24.372;2023-05-10T03:30:35;13.80;;;5.60;;
11677;SDS011;5895;41.950;24.372;2023-05-10T03:33:06;20.35;;;5.80;;
11677;SDS011;5895;41.950;24.372;2023-05-10T03:35:33;15.82;;;6.07;;
11677;SDS011;5895;41.950;24.372;2023-05-10T03:38:01;7.95;;;6.78;;
11677;SDS011;5895;41.950;24.372;2023-05-10T03:40:28;102.22;;;10.38;;
11677;SDS011;5895;41.950;24.372;2023-05-10T03:42:57;9.90;;;6.93;;
11677;SDS011;5895;41.950;24.372;2023-05-10T03:45:25;16.10;;;6.90;;
11677;SDS011;5895;41.950;24.372;2023-05-10T03:47:53;6.40;;;5.85;;
11677;SDS011;5895;41.950;24.372;2023-05-10T03:50:20;6.05;;;5.20;;
11677;SDS011;5895;41.950;24.372;2023-05-10T03:52:47;7.22;;;6.63;;
11677;SDS011;5895;41.950;24.372;2023-05-10T03:55:14;8.63;;;5.40;;
11677;SDS011;5895;41.950;24.372;2023-05-10T03:57:42;5.75;;;5.25;;
11677;SDS011;5895;41.950;24.372;2023-05-10T04:00:09;7.20;;;4.90;;
11677;SDS011;5895;41.950;24.372;2023-05-10T04:02:38;4.75;;;4.35;;
11677;SDS011;5895;41.950;24.372;2023-05-10T04:05:06;9.23;;;4.65;;
11677;SDS011;5895;41.950;24.372;2023-05-10T04:07:33;14.38;;;4.70;;
11677;SDS011;5895;41.950;24.372;2023-05-10T04:10:01;5.20;;;4.80;;
11677;SDS011;5895;41.950;24.372;2023-05-10T04:12:28;9.52;;;5.70;;
11677;SDS011;5895;41.950;24.372;2023-05-10T04:14:55;12.90;;;6.35;;
11677;SDS011;5895;41.950;24.372;2023-05-10T04:17:22;9.25;;;8.35;;
11677;SDS011;5895;41.950;24.372;2023-05-10T04:19:50;14.60;;;7.80;;
11677;SDS011;5895;41.950;24.372;2023-05-10T04:22:19;101.47;;;9.07;;
11677;SDS011;5895;41.950;24.372;2023-05-10T04:24:46;8.65;;;7.85;;
11677;SDS011;5895;41.950;24.372;2023-05-10T04:27:13;8.65;;;7.88;;
11677;SDS011;5895;41.950;24.372;2023-05-10T04:29:41;67.70;;;9.93;;
11677;SDS011;5895;41.950;24.372;2023-05-10T04:32:08;13.48;;;9.90;;
11677;SDS011;5895;41.950;24.372;2023-05-10T04:34:36;55.20;;;8.15;;
11677;SDS011;5895;41.950;24.372;2023-05-10T04:37:04;29.63;;;8.60;;
11677;SDS011;5895;41.950;24.372;2023-05-10T04:39:32;28.05;;;8.48;;
11677;SDS011;5895;41.950;24.372;2023-05-10T04:42:00;17.85;;;8.80;;
11677;SDS011;5895;41.950;24.372;2023-05-10T04:44:28;12.50;;;9.27;;
11677;SDS011;5895;41.950;24.372;2023-05-10T04:46:55;21.65;;;7.72;;
11677;SDS011;5895;41.950;24.372;2023-05-10T04:49:22;25.67;;;8.00;;
11677;SDS011;5895;41.950;24.372;2023-05-10T04:51:49;48.53;;;9.15;;
11677;SDS011;5895;41.950;24.372;2023-05-10T04:54:17;9.80;;;8.30;;
11677;SDS011;5895;41.950;24.372;2023-05-10T04:56:45;24.52;;;8.75;;
11677;SDS011;5895;41.950;24.372;2023-05-10T04:59:12;41.65;;;9.05;;
11677;SDS011;5895;41.950;24.372;2023-05-10T05:01:39;9.18;;;8.30;;
11677;SDS011;5895;41.950;24.372;2023-05-10T05:04:06;36.25;;;9.77;;
11677;SDS011;5895;41.950;24.372;2023-05-10T05:06:33;21.13;;;7.95;;
11677;SDS011;5895;41.950;24.372;2023-05-10T05:09:00;83.28;;;9.55;;
11677;SDS011;5895;41.950;24.372;2023-05-10T05:11:29;92.53;;;9.82;;
11677;SDS011;5895;41.950;24.372;2023-05-10T05:13:56;60.85;;;8.82;;
11677;SDS011;5895;41.950;24.372;2023-05-10T05:16:24;191.40;;;9.73;;
11677;SDS011;5895;41.950;24.372;2023-05-10T05:18:51;45.10;;;11.40;;
11677;SDS011;5895;41.950;24.372;2023-05-10T05:21:18;124.80;;;12.82;;
11677;SDS011;5895;41.950;24.372;2023-05-10T05:23:46;317.75;;;13.48;;
11677;SDS011;5895;41.950;24.372;2023-05-10T05:26:13;262.17;;;10.95;;
11677;SDS011;5895;41.950;24.372;2023-05-10T05:28:42;237.90;;;15.90;;
11677;SDS011;5895;41.950;24.372;2023-05-10T05:31:09;135.18;;;11.57;;
11677;SDS011;5895;41.950;24.372;2023-05-10T05:33:36;94.55;;;9.07;;
11677;SDS011;5895;41.950;24.372;2023-05-10T05:36:04;8.07;;;7.28;;
11677;SDS011;5895;41.950;24.372;2023-05-10T05:38:32;40.78;;;9.18;;
11677;SDS011;5895;41.950;24.372;2023-05-10T05:40:59;11.20;;;7.38;;
11677;SDS011;5895;41.950;24.372;2023-05-10T05:43:26;42.10;;;7.95;;
11677;SDS011;5895;41.950;24.372;2023-05-10T05:45:55;31.58;;;7.97;;
11677;SDS011;5895;41.950;24.372;2023-05-10T05:48:23;52.88;;;8.23;;
11677;SDS011;5895;41.950;24.372;2023-05-10T05:50:50;14.85;;;8.13;;
11677;SDS011;5895;41.950;24.372;2023-05-10T05:53:21;12.52;;;6.65;;
11677;SDS011;5895;41.950;24.372;2023-05-10T05:55:52;7.97;;;7.18;;
11677;SDS011;5895;41.950;24.372;2023-05-10T05:58:20;6.90;;;6.25;;
11677;SDS011;5895;41.950;24.372;2023-05-10T06:00:47;7.85;;;7.13;;
11677;SDS011;5895;41.950;24.372;2023-05-10T06:03:16;14.82;;;7.75;;
11677;SDS011;5895;41.950;24.372;2023-05-10T06:05:43;17.60;;;9.52;;
11677;SDS011;5895;41.950;24.372;2023-05-10T06:08:10;18.92;;;9.70;;
11677;SDS011;5895;41.950;24.372;2023-05-10T06:10:38;7.18;;;6.47;;
11677;SDS011;5895;41.950;24.372;2023-05-10T06:13:05;7.40;;;6.70;;
11677;SDS011;5895;41.950;24.372;2023-05-10T06:15:32;8.48;;;7.13;;
11677;SDS011;5895;41.950;24.372;2023-05-10T06:17:59;6.60;;;6.03;;
11677;SDS011;5895;41.950;24.372;2023-05-10T06:20:28;14.45;;;7.78;;
11677;SDS011;5895;41.950;24.372;2023-05-10T06:22:56;7.85;;;7.13;;
11677;SDS011;5895;41.950;24.372;2023-05-10T06:25:24;9.10;;;8.20;;
11677;SDS011;5895;41.950;24.372;2023-05-10T06:27:51;13.73;;;8.23;;
11677;SDS011;5895;41.950;24.372;2023-05-10T06:30:22;8.93;;;8.00;;
11677;SDS011;5895;41.950;24.372;2023-05-10T06:32:53;8.80;;;7.93;;
11677;SDS011;5895;41.950;24.372;2023-05-10T06:35:20;20.23;;;9.75;;
11677;SDS011;5895;41.950;24.372;2023-05-10T06:37:49;9.32;;;8.32;;
11677;SDS011;5895;41.950;24.372;2023-05-10T06:40:17;7.18;;;6.47;;
11677;SDS011;5895;41.950;24.372;2023-05-10T06:42:44;8.02;;;7.25;;
11677;SDS011;5895;41.950;24.372;2023-05-10T06:45:12;7.20;;;6.50;;
11677;SDS011;5895;41.950;24.372;2023-05-10T06:47:39;7.18;;;6.47;;
11677;SDS011;5895;41.950;24.372;2023-05-10T06:50:07;5.65;;;5.15;;
11677;SDS011;5895;41.950;24.372;2023-05-10T06:52:35;5.80;;;5.20;;
11677;SDS011;5895;41.950;24.372;2023-05-10T06:55:04;4.20;;;3.83;;
11677;SDS011;5895;41.950;24.372;2023-05-10T06:57:32;12.00;;;9.77;;
11677;SDS011;5895;41.950;24.372;2023-05-10T06:59:59;16.83;;;14.77;;
11677;SDS011;5895;41.950;24.372;2023-05-10T07:02:26;7.93;;;7.13;;
11677;SDS011;5895;41.950;24.372;2023-05-10T07:04:53;8.05;;;7.35;;
11677;SDS011;5895;41.950;24.372;2023-05-10T07:07:20;8.75;;;7.95;;
11677;SDS011;5895;41.950;24.372;2023-05-10T07:09:47;7.13;;;6.53;;
11677;SDS011;5895;41.950;24.372;2023-05-10T07:12:17;9.27;;;7.50;;
11677;SDS011;5895;41.950;24.372;2023-05-10T07:14:44;8.85;;;7.45;;
11677;SDS011;5895;41.950;24.372;2023-05-10T07:17:11;7.32;;;6.63;;
11677;SDS011;5895;41.950;24.372;2023-05-10T07:19:38;6.32;;;5.72;;
11677;SDS011;5895;41.950;24.372;2023-05-10T07:22:05;6.35;;;5.75;;
11677;SDS011;5895;41.950;24.372;2023-05-10T07:24:33;10.90;;;6.97;;
11677;SDS011;5895;41.950;24.372;2023-05-10T07:27:00;6.53;;;5.93;;
11677;SDS011;5895;41.950;24.372;2023-05-10T07:29:29;5.68;;;5.18;;
11677;SDS011;5895;41.950;24.372;2023-05-10T07:31:56;5.47;;;5.00;;
11677;SDS011;5895;41.950;24.372;2023-05-10T07:34:23;5.20;;;4.80;;
11677;SDS011;5895;41.950;24.372;2023-05-10T07:36:50;6.25;;;5.68;;
11677;SDS011;5895;41.950;24.372;2023-05-10T07:39:17;5.65;;;5.15;;
11677;SDS011;5895;41.950;24.372;2023-05-10T07:41:45;47.72;;;8.10;;
11677;SDS011;5895;41.950;24.372;2023-05-10T07:44:12;9.60;;;6.22;;
11677;SDS011;5895;41.950;24.372;2023-05-10T07:46:41;14.20;;;5.80;;
11677;SDS011;5895;41.950;24.372;2023-05-10T07:49:08;11.50;;;5.05;;
11677;SDS011;5895;41.950;24.372;2023-05-10T07:51:35;6.20;;;5.05;;
11677;SDS011;5895;41.950;24.372;2023-05-10T07:54:02;11.90;;;5.20;;
11677;SDS011;5895;41.950;24.372;2023-05-10T07:56:30;5.70;;;5.15;;
11677;SDS011;5895;41.950;24.372;2023-05-10T07:58:58;5.80;;;5.30;;
11677;SDS011;5895;41.950;24.372;2023-05-10T08:01:26;5.45;;;4.95;;
11677;SDS011;5895;41.950;24.372;2023-05-10T08:03:57;6.25;;;5.53;;
11677;SDS011;5895;41.950;24.372;2023-05-10T08:06:25;6.32;;;5.72;;
11677;SDS011;5895;41.950;24.372;2023-05-10T08:08:53;4.88;;;4.47;;
11677;SDS011;5895;41.950;24.372;2023-05-10T08:11:20;5.95;;;5.35;;
11677;SDS011;5895;41.950;24.372;2023-05-10T08:13:48;28.08;;;6.63;;
11677;SDS011;5895;41.950;24.372;2023-05-10T08:16:16;44.08;;;6.40;;
11677;SDS011;5895;41.950;24.372;2023-05-10T08:18:43;13.75;;;6.38;;
11677;SDS011;5895;41.950;24.372;2023-05-10T08:21:13;8.98;;;6.32;;
11677;SDS011;5895;41.950;24.372;2023-05-10T08:23:41;23.73;;;7.03;;
11677;SDS011;5895;41.950;24.372;2023-05-10T08:26:08;6.20;;;5.40;;
11677;SDS011;5895;41.950;24.372;2023-05-10T08:28:35;7.57;;;5.95;;
11677;SDS011;5895;41.950;24.372;2023-05-10T08:31:02;6.60;;;6.00;;
11677;SDS011;5895;41.950;24.372;2023-05-10T08:33:30;137.75;;;7.72;;
11677;SDS011;5895;41.950;24.372;2023-05-10T08:35:57;11.38;;;6.72;;
11677;SDS011;5895;41.950;24.372;2023-05-10T08:38:26;19.38;;;6.00;;
11677;SDS011;5895;41.950;24.372;2023-05-10T08:40:53;10.30;;;5.03;;
11677;SDS011;5895;41.950;24.372;2023-05-10T08:43:25;14.82;;;5.97;;
11677;SDS011;5895;41.950;24.372;2023-05-10T08:45:54;6.88;;;6.07;;
11677;SDS011;5895;41.950;24.372;2023-05-10T08:48:22;13.90;;;6.05;;
11677;SDS011;5895;41.950;24.372;2023-05-10T08:50:52;6.95;;;6.25;;
11677;SDS011;5895;41.950;24.372;2023-05-10T08:53:21;5.40;;;4.90;;
11677;SDS011;5895;41.950;24.372;2023-05-10T08:55:53;7.90;;;6.55;;
11677;SDS011;5895;41.950;24.372;2023-05-10T08:58:20;51.85;;;6.60;;
11677;SDS011;5895;41.950;24.372;2023-05-10T09:00:48;11.70;;;6.10;;
11677;SDS011;5895;41.950;24.372;2023-05-10T09:03:17;17.23;;;6.55;;
11677;SDS011;5895;41.950;24.372;2023-05-10T09:05:44;48.55;;;8.35;;
11677;SDS011;5895;41.950;24.372;2023-05-10T09:08:12;29.98;;;8.40;;
11677;SDS011;5895;41.950;24.372;2023-05-10T09:10:42;8.18;;;7.38;;
11677;SDS011;5895;41.950;24.372;2023-05-10T09:13:14;32.80;;;8.32;;
11677;SDS011;5895;41.950;24.372;2023-05-10T09:15:42;9.98;;;7.40;;
11677;SDS011;5895;41.950;24.372;2023-05-10T09:18:11;11.05;;;8.48;;
11677;SDS011;5895;41.950;24.372;2023-05-10T09:20:41;26.02;;;8.60;;
11677;SDS011;5895;41.950;24.372;2023-05-10T09:23:08;9.23;;;8.30;;
11677;SDS011;5895;41.950;24.372;2023-05-10T09:25:35;419.77;;;17.17;;
11677;SDS011;5895;41.950;24.372;2023-05-10T09:28:05;12.10;;;8.50;;
11677;SDS011;5895;41.950;24.372;2023-05-10T09:30:35;8.07;;;7.40;;
11677;SDS011;5895;41.950;24.372;2023-05-10T09:33:02;8.50;;;7.80;;
11677;SDS011;5895;41.950;24.372;2023-05-10T09:35:30;11.45;;;10.25;;
11677;SDS011;5895;41.950;24.372;2023-05-10T09:37:59;8.55;;;7.75;;
11677;SDS011;5895;41.950;24.372;2023-05-10T09:40:28;8.20;;;7.03;;
11677;SDS011;5895;41.950;24.372;2023-05-10T09:42:56;7.18;;;6.57;;
11677;SDS011;5895;41.950;24.372;2023-05-10T09:45:25;19.83;;;9.02;;
11677;SDS011;5895;41.950;24.372;2023-05-10T09:47:55;14.00;;;8.95;;
11677;SDS011;5895;41.950;24.372;2023-05-10T09:50:23;186.23;;;12.75;;
11677;SDS011;5895;41.950;24.372;2023-05-10T09:52:50;15.30;;;9.90;;
11677;SDS011;5895;41.950;24.372;2023-05-10T09:55:19;61.45;;;10.52;;
11677;SDS011;5895;41.950;24.372;2023-05-10T09:57:47;18.15;;;8.75;;
11677;SDS011;5895;41.950;24.372;2023-05-10T10:00:16;62.35;;;11.13;;
11677;SDS011;5895;41.950;24.372;2023-05-10T10:02:45;18.13;;;10.32;;
11677;SDS011;5895;41.950;24.372;2023-05-10T10:05:15;12.95;;;10.82;;
11677;SDS011;5895;41.950;24.372;2023-05-10T10:07:42;223.25;;;14.68;;
11677;SDS011;5895;41.950;24.372;2023-05-10T10:10:10;10.10;;;8.95;;
11677;SDS011;5895;41.950;24.372;2023-05-10T10:12:41;21.83;;;9.80;;
11677;SDS011;5895;41.950;24.372;2023-05-10T10:15:08;21.20;;;10.55;;
11677;SDS011;5895;41.950;24.372;2023-05-10T10:17:36;12.68;;;10.73;;
11677;SDS011;5895;41.950;24.372;2023-05-10T10:20:05;18.20;;;13.55;;
11677;SDS011;5895;41.950;24.372;2023-05-10T10:22:34;14.77;;;11.77;;
11677;SDS011;5895;41.950;24.372;2023-05-10T10:25:03;42.60;;;15.45;;
11677;SDS011;5895;41.950;24.372;2023-05-10T10:27:33;40.15;;;19.00;;
11677;SDS011;5895;41.950;24.372;2023-05-10T10:30:13;23.40;;;17.77;;
11677;SDS011;5895;41.950;24.372;2023-05-10T10:32:58;20.35;;;12.15;;
11677;SDS011;5895;41.950;24.372;2023-05-10T10:35:42;49.80;;;24.77;;
11677;SDS011;5895;41.950;24.372;2023-05-10T10:38:13;41.20;;;21.50;;
11677;SDS011;5895;41.950;24.372;2023-05-10T10:40:40;131.15;;;22.83;;
11677;SDS011;5895;41.950;24.372;2023-05-10T10:43:23;26.35;;;21.05;;
11677;SDS011;5895;41.950;24.372;2023-05-10T10:46:10;29.95;;;17.02;;
11677;SDS011;5895;41.950;24.372;2023-05-10T10:48:39;260.13;;;19.10;;
11677;SDS011;5895;41.950;24.372;2023-05-10T10:51:07;23.20;;;16.90;;
11677;SDS011;5895;41.950;24.372;2023-05-10T10:53:35;44.85;;;18.50;;
11677;SDS011;5895;41.950;24.372;2023-05-10T10:56:05;32.38;;;15.60;;
11677;SDS011;5895;41.950;24.372;2023-05-10T10:58:34;18.52;;;10.75;;
11677;SDS011;5895;41.950;24.372;2023-05-10T11:01:12;51.63;;;11.90;;
11677;SDS011;5895;41.950;24.372;2023-05-10T11:03:41;19.92;;;17.92;;
11677;SDS011;5895;41.950;24.372;2023-05-10T11:06:41;20.10;;;18.20;;
11677;SDS011;5895;41.950;24.372;2023-05-10T11:09:10;14.73;;;13.43;;
11677;SDS011;5895;41.950;24.372;2023-05-10T11:11:48;14.65;;;13.30;;
11677;SDS011;5895;41.950;24.372;2023-05-10T11:14:19;20.08;;;13.80;;
11677;SDS011;5895;41.950;24.372;2023-05-10T11:16:47;19.05;;;13.40;;
11677;SDS011;5895;41.950;24.372;2023-05-10T11:19:15;560.13;;;27.23;;
11677;SDS011;5895;41.950;24.372;2023-05-10T11:21:46;100.68;;;15.93;;
11677;SDS011;5895;41.950;24.372;2023-05-10T11:24:16;82.78;;;15.50;;
11677;SDS011;5895;41.950;24.372;2023-05-10T11:26:44;33.20;;;13.85;;
11677;SDS011;5895;41.950;24.372;2023-05-10T11:29:12;24.27;;;16.88;;
11677;SDS011;5895;41.950;24.372;2023-05-10T11:31:42;20.17;;;18.08;;
11677;SDS011;5895;41.950;24.372;2023-05-10T11:34:10;16.88;;;13.85;;
11677;SDS011;5895;41.950;24.372;2023-05-10T11:36:39;590.17;;;26.27;;
11677;SDS011;5895;41.950;24.372;2023-05-10T11:39:06;107.60;;;15.73;;
11677;SDS011;5895;41.950;24.372;2023-05-10T11:41:35;143.50;;;16.70;;
11677;SDS011;5895;41.950;24.372;2023-05-10T11:44:02;107.63;;;17.27;;
11677;SDS011;5895;41.950;24.372;2023-05-10T11:46:29;205.27;;;21.15;;
11677;SDS011;5895;41.950;24.372;2023-05-10T11:48:57;125.90;;;16.15;;
11677;SDS011;5895;41.950;24.372;2023-05-10T11:51:29;32.55;;;14.05;;
11677;SDS011;5895;41.950;24.372;2023-05-10T11:53:59;19.92;;;17.92;;
11677;SDS011;5895;41.950;24.372;2023-05-10T11:56:26;552.40;;;28.88;;
11677;SDS011;5895;41.950;24.372;2023-05-10T11:58:55;48.05;;;18.83;;
11677;SDS011;5895;41.950;24.372;2023-05-10T12:01:23;36.88;;;22.48;;
11677;SDS011;5895;41.950;24.372;2023-05-10T12:03:51;24.85;;;18.08;;
11677;SDS011;5895;41.950;24.372;2023-05-10T12:06:20;230.10;;;21.92;;
11677;SDS011;5895;41.950;24.372;2023-05-10T12:08:48;32.00;;;23.90;;
11677;SDS011;5895;41.950;24.372;2023-05-10T12:11:17;16.50;;;14.90;;
11677;SDS011;5895;41.950;24.372;2023-05-10T12:13:46;19.48;;;17.50;;
11677;SDS011;5895;41.950;24.372;2023-05-10T12:16:19;160.10;;;18.45;;
11677;SDS011;5895;41.950;24.372;2023-05-10T12:18:48;47.08;;;16.20;;
11677;SDS011;5895;41.950;24.372;2023-05-10T12:21:16;19.65;;;14.25;;
11677;SDS011;5895;41.950;24.372;2023-05-10T12:23:45;47.40;;;35.13;;
11677;SDS011;5895;41.950;24.372;2023-05-10T12:26:12;29.70;;;17.17;;
11677;SDS011;5895;41.950;24.372;2023-05-10T12:28:39;19.65;;;17.17;;
11677;SDS011;5895;41.950;24.372;2023-05-10T12:31:06;30.58;;;22.25;;
11677;SDS011;5895;41.950;24.372;2023-05-10T12:33:39;73.95;;;14.15;;
11677;SDS011;5895;41.950;24.372;2023-05-10T12:36:08;17.05;;;13.77;;
11677;SDS011;5895;41.950;24.372;2023-05-10T12:38:36;111.97;;;15.13;;
11677;SDS011;5895;41.950;24.372;2023-05-10T12:41:04;83.88;;;14.55;;
11677;SDS011;5895;41.950;24.372;2023-05-10T12:43:33;156.18;;;24.92;;
11677;SDS011;5895;41.950;24.372;2023-05-10T12:46:04;36.20;;;14.43;;
11677;SDS011;5895;41.950;24.372;2023-05-10T12:48:31;28.52;;;15.18;;
11677;SDS011;5895;41.950;24.372;2023-05-10T12:51:00;18.77;;;16.27;;
11677;SDS011;5895;41.950;24.372;2023-05-10T12:53:28;126.15;;;19.52;;
11677;SDS011;5895;41.950;24.372;2023-05-10T12:55:55;19.83;;;17.48;;
11677;SDS011;5895;41.950;24.372;2023-05-10T12:58:22;19.35;;;17.55;;
11677;SDS011;5895;41.950;24.372;2023-05-10T13:00:49;42.85;;;16.80;;
11677;SDS011;5895;41.950;24.372;2023-05-10T13:03:18;170.40;;;21.73;;
11677;SDS011;5895;41.950;24.372;2023-05-10T13:05:45;39.28;;;15.15;;
11677;SDS011;5895;41.950;24.372;2023-05-10T13:08:13;19.83;;;14.43;;
11677;SDS011;5895;41.950;24.372;2023-05-10T13:10:40;16.77;;;15.07;;
11677;SDS011;5895;41.950;24.372;2023-05-10T13:13:08;15.40;;;13.98;;
11677;SDS011;5895;41.950;24.372;2023-05-10T13:15:35;31.20;;;15.65;;
11677;SDS011;5895;41.950;24.372;2023-05-10T13:18:02;34.08;;;14.05;;
11677;SDS011;5895;41.950;24.372;2023-05-10T13:20:29;98.75;;;15.68;;
11677;SDS011;5895;41.950;24.372;2023-05-10T13:22:56;129.10;;;16.65;;
11677;SDS011;5895;41.950;24.372;2023-05-10T13:25:25;47.42;;;17.67;;
11677;SDS011;5895;41.950;24.372;2023-05-10T13:27:52;187.43;;;18.77;;
11677;SDS011;5895;41.950;24.372;2023-05-10T13:30:19;337.80;;;21.70;;
11677;SDS011;5895;41.950;24.372;2023-05-10T13:32:46;72.97;;;16.13;;
11677;SDS011;5895;41.950;24.372;2023-05-10T13:35:14;18.10;;;16.33;;
11677;SDS011;5895;41.950;24.372;2023-05-10T13:37:41;16.63;;;15.02;;
11677;SDS011;5895;41.950;24.372;2023-05-10T13:40:08;120.63;;;16.17;;
11677;SDS011;5895;41.950;24.372;2023-05-10T13:42:37;35.60;;;16.50;;
11677;SDS011;5895;41.950;24.372;2023-05-10T13:45:05;14.20;;;12.80;;
11677;SDS011;5895;41.950;24.372;2023-05-10T13:47:33;17.23;;;15.52;;
11677;SDS011;5895;41.950;24.372;2023-05-10T13:50:00;14.02;;;12.82;;
11677;SDS011;5895;41.950;24.372;2023-05-10T13:52:28;13.82;;;12.63;;
11677;SDS011;5895;41.950;24.372;2023-05-10T13:54:55;20.48;;;13.40;;
11677;SDS011;5895;41.950;24.372;2023-05-10T13:57:22;12.35;;;11.25;;
11677;SDS011;5895;41.950;24.372;2023-05-10T13:59:51;10.68;;;9.75;;
11677;SDS011;5895;41.950;24.372;2023-05-10T14:02:18;13.00;;;11.00;;
11677;SDS011;5895;41.950;24.372;2023-05-10T14:04:46;10.90;;;9.90;;
11677;SDS011;5895;41.950;24.372;2023-05-10T14:07:13;11.95;;;10.95;;
11677;SDS011;5895;41.950;24.372;2023-05-10T14:09:40;11.80;;;10.65;;
11677;SDS011;5895;41.950;24.372;2023-05-10T14:12:07;55.60;;;12.48;;
11677;SDS011;5895;41.950;24.372;2023-05-10T14:14:34;13.07;;;11.88;;
11677;SDS011;5895;41.950;24.372;2023-05-10T14:17:03;37.05;;;12.80;;
11677;SDS011;5895;41.950;24.372;2023-05-10T14:19:30;13.13;;;10.82;;
11677;SDS011;5895;41.950;24.372;2023-05-10T14:21:59;11.57;;;10.48;;
11677;SDS011;5895;41.950;24.372;2023-05-10T14:24:26;12.18;;;11.18;;
11677;SDS011;5895;41.950;24.372;2023-05-10T14:26:53;11.07;;;10.07;;
11677;SDS011;5895;41.950;24.372;2023-05-10T14:29:20;13.10;;;11.90;;
11677;SDS011;5895;41.950;24.372;2023-05-10T14:31:47;13.15;;;11.95;;
11677;SDS011;5895;41.950;24.372;2023-05-10T14:34:15;16.52;;;12.02;;
11677;SDS011;5895;41.950;24.372;2023-05-10T14:36:43;318.60;;;17.40;;
11677;SDS011;5895;41.950;24.372;2023-05-10T14:39:10;13.20;;;12.10;;
11677;SDS011;5895;41.950;24.372;2023-05-10T14:41:38;22.52;;;12.40;;
11677;SDS011;5895;41.950;24.372;2023-05-10T14:44:06;55.63;;;12.48;;
11677;SDS011;5895;41.950;24.372;2023-05-10T14:46:33;13.38;;;12.27;;